sensor_id;sensor_type;location;lat;lon;timestamp;P1;durP1;ratioP1;P2;durP2;ratioP2
15216;SDS011;7711;46.634;14.318;2022-08-25T00:02:03;6.88;;;6.10;;
15216;SDS011;7711;46.634;14.318;2022-08-25T00:04:33;6.88;;;6.18;;
15216;SDS011;7711;46.634;14.318;2022-08-25T00:07:01;8.00;;;6.07;;
15216;SDS011;7711;46.634;14.318;2022-08-25T00:09:28;6.45;;;5.90;;
15216;SDS011;7711;46.634;14.318;2022-08-25T00:11:57;7.05;;;5.72;;
15216;SDS011;7711;46.634;14.318;2022-08-25T00:14:26;7.00;;;6.30;;
15216;SDS011;7711;46.634;14.318;2022-08-25T00:16:55;6.88;;;6.18;;
15216;SDS011;7711;46.634;14.318;2022-08-25T00:19:24;7.05;;;5.82;;
15216;SDS011;7711;46.634;14.318;2022-08-25T00:21:56;6.65;;;6.05;;
15216;SDS011;7711;46.634;14.318;2022-08-25T00:24:24;7.00;;;6.28;;
15216;SDS011;7711;46.634;14.318;2022-08-25T00:26:53;7.10;;;6.40;;
15216;SDS011;7711;46.634;14.318;2022-08-25T00:29:22;7.60;;;6.90;;
15216;SDS011;7711;46.634;14.318;2022-08-25T00:31:52;7.28;;;6.68;;
15216;SDS011;7711;46.634;14.318;2022-08-25T00:34:21;7.90;;;7.10;;
15216;SDS011;7711;46.634;14.318;2022-08-25T00:36:50;7.80;;;6.22;;
15216;SDS011;7711;46.634;14.318;2022-08-25T00:39:17;6.75;;;6.10;;
15216;SDS011;7711;46.634;14.318;2022-08-25T00:41:49;7.00;;;6.30;;
15216;SDS011;7711;46.634;14.318;2022-08-25T00:44:17;7.30;;;6.43;;
15216;SDS011;7711;46.634;14.318;2022-08-25T00:46:45;6.97;;;6.28;;
15216;SDS011;7711;46.634;14.318;2022-08-25T00:49:16;7.40;;;6.70;;
15216;SDS011;7711;46.634;14.318;2022-08-25T00:51:46;9.18;;;6.35;;
15216;SDS011;7711;46.634;14.318;2022-08-25T00:54:17;8.18;;;6.93;;
15216;SDS011;7711;46.634;14.318;2022-08-25T00:56:48;7.90;;;7.07;;
15216;SDS011;7711;46.634;14.318;2022-08-25T00:59:17;7.30;;;6.60;;
15216;SDS011;7711;46.634;14.318;2022-08-25T01:01:45;7.88;;;6.82;;
15216;SDS011;7711;46.634;14.318;2022-08-25T01:04:17;7.45;;;6.85;;
15216;SDS011;7711;46.634;14.318;2022-08-25T01:06:46;8.38;;;6.88;;
15216;SDS011;7711;46.634;14.318;2022-08-25T01:09:16;7.47;;;6.78;;
15216;SDS011;7711;46.634;14.318;2022-08-25T01:11:45;8.43;;;7.20;;
15216;SDS011;7711;46.634;14.318;2022-08-25T01:14:14;8.82;;;6.88;;
15216;SDS011;7711;46.634;14.318;2022-08-25T01:16:43;7.60;;;6.80;;
15216;SDS011;7711;46.634;14.318;2022-08-25T01:19:12;7.43;;;6.68;;
15216;SDS011;7711;46.634;14.318;2022-08-25T01:21:46;9.45;;;7.53;;
15216;SDS011;7711;46.634;14.318;2022-08-25T01:24:17;11.43;;;7.63;;
15216;SDS011;7711;46.634;14.318;2022-08-25T01:26:55;7.72;;;7.00;;
15216;SDS011;7711;46.634;14.318;2022-08-25T01:29:26;8.27;;;7.47;;
15216;SDS011;7711;46.634;14.318;2022-08-25T01:31:55;8.70;;;7.05;;
15216;SDS011;7711;46.634;14.318;2022-08-25T01:34:24;7.93;;;7.13;;
15216;SDS011;7711;46.634;14.318;2022-08-25T01:36:54;10.23;;;7.88;;
15216;SDS011;7711;46.634;14.318;2022-08-25T01:39:26;7.80;;;7.07;;
15216;SDS011;7711;46.634;14.318;2022-08-25T01:44:59;8.25;;;7.22;;
15216;SDS011;7711;46.634;14.318;2022-08-25T01:47:27;8.05;;;7.32;;
15216;SDS011;7711;46.634;14.318;2022-08-25T01:49:59;8.07;;;7.03;;
15216;SDS011;7711;46.634;14.318;2022-08-25T01:52:29;7.60;;;6.90;;
15216;SDS011;7711;46.634;14.318;2022-08-25T01:55:02;8.68;;;7.47;;
15216;SDS011;7711;46.634;14.318;2022-08-25T01:57:32;8.25;;;7.30;;
15216;SDS011;7711;46.634;14.318;2022-08-25T02:00:09;7.63;;;6.90;;
15216;SDS011;7711;46.634;14.318;2022-08-25T02:02:42;7.95;;;7.15;;
15216;SDS011;7711;46.634;14.318;2022-08-25T02:05:12;7.72;;;6.93;;
15216;SDS011;7711;46.634;14.318;2022-08-25T02:07:46;8.13;;;7.03;;
15216;SDS011;7711;46.634;14.318;2022-08-25T02:10:17;8.02;;;7.20;;
15216;SDS011;7711;46.634;14.318;2022-08-25T02:12:49;8.82;;;7.18;;
15216;SDS011;7711;46.634;14.318;2022-08-25T02:15:16;8.15;;;7.35;;
15216;SDS011;7711;46.634;14.318;2022-08-25T02:17:48;7.70;;;6.95;;
15216;SDS011;7711;46.634;14.318;2022-08-25T02:20:16;8.50;;;7.65;;
15216;SDS011;7711;46.634;14.318;2022-08-25T02:22:43;9.02;;;7.30;;
15216;SDS011;7711;46.634;14.318;2022-08-25T02:25:15;8.27;;;7.07;;
15216;SDS011;7711;46.634;14.318;2022-08-25T02:27:45;9.57;;;7.45;;
15216;SDS011;7711;46.634;14.318;2022-08-25T02:30:15;8.00;;;7.20;;
15216;SDS011;7711;46.634;14.318;2022-08-25T02:32:43;8.82;;;7.53;;
15216;SDS011;7711;46.634;14.318;2022-08-25T02:35:12;8.95;;;7.40;;
15216;SDS011;7711;46.634;14.318;2022-08-25T02:37:42;8.80;;;7.55;;
15216;SDS011;7711;46.634;14.318;2022-08-25T02:40:12;9.30;;;7.65;;
15216;SDS011;7711;46.634;14.318;2022-08-25T02:42:39;8.02;;;7.10;;
15216;SDS011;7711;46.634;14.318;2022-08-25T02:45:11;8.05;;;7.25;;
15216;SDS011;7711;46.634;14.318;2022-08-25T02:47:38;8.48;;;7.13;;
15216;SDS011;7711;46.634;14.318;2022-08-25T02:50:11;8.38;;;7.22;;
15216;SDS011;7711;46.634;14.318;2022-08-25T02:52:38;8.50;;;7.47;;
15216;SDS011;7711;46.634;14.318;2022-08-25T02:55:08;8.02;;;6.75;;
15216;SDS011;7711;46.634;14.318;2022-08-25T02:57:40;8.13;;;7.32;;
15216;SDS011;7711;46.634;14.318;2022-08-25T03:00:11;7.93;;;6.75;;
15216;SDS011;7711;46.634;14.318;2022-08-25T03:02:39;8.68;;;7.88;;
15216;SDS011;7711;46.634;14.318;2022-08-25T03:05:12;8.82;;;7.78;;
15216;SDS011;7711;46.634;14.318;2022-08-25T03:07:42;8.27;;;7.03;;
15216;SDS011;7711;46.634;14.318;2022-08-25T03:10:15;7.82;;;6.88;;
15216;SDS011;7711;46.634;14.318;2022-08-25T03:12:44;8.00;;;7.25;;
15216;SDS011;7711;46.634;14.318;2022-08-25T03:15:14;8.20;;;7.40;;
15216;SDS011;7711;46.634;14.318;2022-08-25T03:17:44;10.30;;;7.20;;
15216;SDS011;7711;46.634;14.318;2022-08-25T03:20:13;8.70;;;7.82;;
15216;SDS011;7711;46.634;14.318;2022-08-25T03:22:40;9.98;;;8.05;;
15216;SDS011;7711;46.634;14.318;2022-08-25T03:25:11;8.70;;;7.90;;
15216;SDS011;7711;46.634;14.318;2022-08-25T03:27:57;11.02;;;8.45;;
15216;SDS011;7711;46.634;14.318;2022-08-25T03:30:28;9.35;;;7.35;;
15216;SDS011;7711;46.634;14.318;2022-08-25T03:32:58;9.27;;;8.05;;
15216;SDS011;7711;46.634;14.318;2022-08-25T03:35:27;8.13;;;7.43;;
15216;SDS011;7711;46.634;14.318;2022-08-25T03:37:59;8.95;;;7.82;;
15216;SDS011;7711;46.634;14.318;2022-08-25T03:40:28;8.75;;;7.70;;
15216;SDS011;7711;46.634;14.318;2022-08-25T03:42:57;9.75;;;7.85;;
15216;SDS011;7711;46.634;14.318;2022-08-25T03:45:28;9.00;;;7.40;;
15216;SDS011;7711;46.634;14.318;2022-08-25T03:47:59;7.53;;;6.72;;
15216;SDS011;7711;46.634;14.318;2022-08-25T03:50:26;9.10;;;7.68;;
15216;SDS011;7711;46.634;14.318;2022-08-25T03:52:57;8.30;;;7.50;;
15216;SDS011;7711;46.634;14.318;2022-08-25T03:55:26;9.65;;;7.72;;
15216;SDS011;7711;46.634;14.318;2022-08-25T03:57:58;12.15;;;8.10;;
15216;SDS011;7711;46.634;14.318;2022-08-25T04:00:27;8.40;;;7.45;;
15216;SDS011;7711;46.634;14.318;2022-08-25T04:02:57;8.75;;;7.63;;
15216;SDS011;7711;46.634;14.318;2022-08-25T04:05:26;9.02;;;7.85;;
15216;SDS011;7711;46.634;14.318;2022-08-25T04:07:59;8.85;;;7.65;;
15216;SDS011;7711;46.634;14.318;2022-08-25T04:10:28;10.23;;;7.38;;
15216;SDS011;7711;46.634;14.318;2022-08-25T04:13:00;10.32;;;7.75;;
15216;SDS011;7711;46.634;14.318;2022-08-25T04:15:32;7.50;;;6.80;;
15216;SDS011;7711;46.634;14.318;2022-08-25T04:18:01;10.38;;;7.35;;
15216;SDS011;7711;46.634;14.318;2022-08-25T04:20:30;11.50;;;7.93;;
15216;SDS011;7711;46.634;14.318;2022-08-25T04:22:59;8.70;;;7.90;;
15216;SDS011;7711;46.634;14.318;2022-08-25T04:25:28;8.75;;;7.85;;
15216;SDS011;7711;46.634;14.318;2022-08-25T04:27:55;10.38;;;7.53;;
15216;SDS011;7711;46.634;14.318;2022-08-25T04:30:27;10.98;;;7.43;;
15216;SDS011;7711;46.634;14.318;2022-08-25T04:33:03;9.50;;;7.80;;
15216;SDS011;7711;46.634;14.318;2022-08-25T04:35:31;8.75;;;7.80;;
15216;SDS011;7711;46.634;14.318;2022-08-25T04:38:00;9.70;;;7.80;;
15216;SDS011;7711;46.634;14.318;2022-08-25T04:40:33;10.02;;;8.32;;
15216;SDS011;7711;46.634;14.318;2022-08-25T04:43:02;8.73;;;7.93;;
15216;SDS011;7711;46.634;14.318;2022-08-25T04:45:38;9.10;;;8.20;;
15216;SDS011;7711;46.634;14.318;2022-08-25T04:48:12;10.85;;;8.60;;
15216;SDS011;7711;46.634;14.318;2022-08-25T04:50:42;11.30;;;8.07;;
15216;SDS011;7711;46.634;14.318;2022-08-25T04:53:12;9.00;;;8.07;;
15216;SDS011;7711;46.634;14.318;2022-08-25T04:55:40;8.35;;;7.50;;
15216;SDS011;7711;46.634;14.318;2022-08-25T04:58:11;10.73;;;8.05;;
15216;SDS011;7711;46.634;14.318;2022-08-25T05:00:41;8.98;;;7.47;;
15216;SDS011;7711;46.634;14.318;2022-08-25T05:03:08;10.23;;;8.18;;
15216;SDS011;7711;46.634;14.318;2022-08-25T05:05:36;8.88;;;7.93;;
15216;SDS011;7711;46.634;14.318;2022-08-25T05:08:10;10.75;;;8.05;;
15216;SDS011;7711;46.634;14.318;2022-08-25T05:10:39;9.38;;;7.43;;
15216;SDS011;7711;46.634;14.318;2022-08-25T05:13:10;8.20;;;7.40;;
15216;SDS011;7711;46.634;14.318;2022-08-25T05:15:38;8.95;;;7.90;;
15216;SDS011;7711;46.634;14.318;2022-08-25T05:18:16;8.02;;;7.13;;
15216;SDS011;7711;46.634;14.318;2022-08-25T05:20:43;10.23;;;7.80;;
15216;SDS011;7711;46.634;14.318;2022-08-25T05:23:14;9.35;;;7.90;;
15216;SDS011;7711;46.634;14.318;2022-08-25T05:25:43;9.55;;;7.70;;
15216;SDS011;7711;46.634;14.318;2022-08-25T05:28:19;9.25;;;8.02;;
15216;SDS011;7711;46.634;14.318;2022-08-25T05:30:48;10.93;;;8.82;;
15216;SDS011;7711;46.634;14.318;2022-08-25T05:33:17;8.95;;;7.82;;
15216;SDS011;7711;46.634;14.318;2022-08-25T05:35:51;11.80;;;8.27;;
15216;SDS011;7711;46.634;14.318;2022-08-25T05:38:19;10.52;;;7.93;;
15216;SDS011;7711;46.634;14.318;2022-08-25T05:40:50;9.07;;;8.20;;
15216;SDS011;7711;46.634;14.318;2022-08-25T05:43:23;11.13;;;7.88;;
15216;SDS011;7711;46.634;14.318;2022-08-25T05:45:53;9.98;;;7.88;;
15216;SDS011;7711;46.634;14.318;2022-08-25T05:48:21;9.77;;;8.30;;
15216;SDS011;7711;46.634;14.318;2022-08-25T05:50:52;11.32;;;7.88;;
15216;SDS011;7711;46.634;14.318;2022-08-25T05:53:23;10.75;;;8.05;;
15216;SDS011;7711;46.634;14.318;2022-08-25T05:55:54;9.80;;;7.05;;
15216;SDS011;7711;46.634;14.318;2022-08-25T05:58:23;9.43;;;8.45;;
15216;SDS011;7711;46.634;14.318;2022-08-25T06:00:51;12.70;;;7.78;;
15216;SDS011;7711;46.634;14.318;2022-08-25T06:03:21;11.30;;;7.00;;
15216;SDS011;7711;46.634;14.318;2022-08-25T06:05:49;8.05;;;7.05;;
15216;SDS011;7711;46.634;14.318;2022-08-25T06:08:16;10.50;;;7.25;;
15216;SDS011;7711;46.634;14.318;2022-08-25T06:10:44;7.13;;;6.43;;
15216;SDS011;7711;46.634;14.318;2022-08-25T06:13:11;9.20;;;6.53;;
15216;SDS011;7711;46.634;14.318;2022-08-25T06:15:38;10.70;;;6.10;;
15216;SDS011;7711;46.634;14.318;2022-08-25T06:18:07;6.68;;;5.95;;
15216;SDS011;7711;46.634;14.318;2022-08-25T06:20:34;7.85;;;6.63;;
15216;SDS011;7711;46.634;14.318;2022-08-25T06:23:01;8.77;;;6.53;;
15216;SDS011;7711;46.634;14.318;2022-08-25T06:25:30;9.00;;;6.57;;
15216;SDS011;7711;46.634;14.318;2022-08-25T06:27:58;7.47;;;6.50;;
15216;SDS011;7711;46.634;14.318;2022-08-25T06:30:25;10.70;;;6.47;;
15216;SDS011;7711;46.634;14.318;2022-08-25T06:32:52;7.30;;;6.60;;
15216;SDS011;7711;46.634;14.318;2022-08-25T06:35:21;10.75;;;6.60;;
15216;SDS011;7711;46.634;14.318;2022-08-25T06:37:49;7.03;;;6.32;;
15216;SDS011;7711;46.634;14.318;2022-08-25T06:40:18;10.18;;;6.63;;
15216;SDS011;7711;46.634;14.318;2022-08-25T06:42:46;7.75;;;6.20;;
15216;SDS011;7711;46.634;14.318;2022-08-25T06:45:14;7.90;;;6.15;;
15216;SDS011;7711;46.634;14.318;2022-08-25T06:47:42;7.70;;;5.65;;
15216;SDS011;7711;46.634;14.318;2022-08-25T06:50:11;11.30;;;6.78;;
15216;SDS011;7711;46.634;14.318;2022-08-25T06:52:40;8.93;;;6.05;;
15216;SDS011;7711;46.634;14.318;2022-08-25T06:55:08;6.80;;;6.10;;
15216;SDS011;7711;46.634;14.318;2022-08-25T06:57:38;6.53;;;5.93;;
15216;SDS011;7711;46.634;14.318;2022-08-25T07:00:06;6.95;;;6.25;;
15216;SDS011;7711;46.634;14.318;2022-08-25T07:02:35;7.25;;;6.05;;
15216;SDS011;7711;46.634;14.318;2022-08-25T07:05:03;7.72;;;6.32;;
15216;SDS011;7711;46.634;14.318;2022-08-25T07:07:31;7.00;;;6.25;;
15216;SDS011;7711;46.634;14.318;2022-08-25T07:10:00;7.75;;;6.53;;
15216;SDS011;7711;46.634;14.318;2022-08-25T07:12:28;7.43;;;6.40;;
15216;SDS011;7711;46.634;14.318;2022-08-25T07:14:58;8.70;;;5.75;;
15216;SDS011;7711;46.634;14.318;2022-08-25T07:17:28;7.18;;;6.28;;
15216;SDS011;7711;46.634;14.318;2022-08-25T07:19:58;12.93;;;6.32;;
15216;SDS011;7711;46.634;14.318;2022-08-25T07:22:25;6.93;;;6.22;;
15216;SDS011;7711;46.634;14.318;2022-08-25T07:24:53;7.55;;;6.40;;
15216;SDS011;7711;46.634;14.318;2022-08-25T07:27:22;6.97;;;6.28;;
15216;SDS011;7711;46.634;14.318;2022-08-25T07:29:50;8.32;;;6.60;;
15216;SDS011;7711;46.634;14.318;2022-08-25T07:32:20;11.65;;;7.30;;
15216;SDS011;7711;46.634;14.318;2022-08-25T07:34:48;6.97;;;6.38;;
15216;SDS011;7711;46.634;14.318;2022-08-25T07:37:33;8.85;;;6.80;;
15216;SDS011;7711;46.634;14.318;2022-08-25T07:40:04;8.10;;;6.78;;
15216;SDS011;7711;46.634;14.318;2022-08-25T07:42:36;8.13;;;7.18;;
15216;SDS011;7711;46.634;14.318;2022-08-25T07:45:08;7.50;;;6.90;;
15216;SDS011;7711;46.634;14.318;2022-08-25T07:47:40;7.95;;;6.32;;
15216;SDS011;7711;46.634;14.318;2022-08-25T07:50:09;8.02;;;6.32;;
15216;SDS011;7711;46.634;14.318;2022-08-25T07:52:40;7.30;;;6.60;;
15216;SDS011;7711;46.634;14.318;2022-08-25T07:55:08;7.45;;;6.75;;
15216;SDS011;7711;46.634;14.318;2022-08-25T07:57:39;7.40;;;6.63;;
15216;SDS011;7711;46.634;14.318;2022-08-25T08:00:09;8.20;;;6.75;;
15216;SDS011;7711;46.634;14.318;2022-08-25T08:02:39;9.02;;;6.55;;
15216;SDS011;7711;46.634;14.318;2022-08-25T08:05:07;8.07;;;6.97;;
15216;SDS011;7711;46.634;14.318;2022-08-25T08:07:36;11.35;;;6.95;;
15216;SDS011;7711;46.634;14.318;2022-08-25T08:10:04;7.10;;;6.18;;
15216;SDS011;7711;46.634;14.318;2022-08-25T08:12:34;7.57;;;6.40;;
15216;SDS011;7711;46.634;14.318;2022-08-25T08:15:04;7.45;;;6.75;;
15216;SDS011;7711;46.634;14.318;2022-08-25T08:17:32;7.30;;;6.63;;
15216;SDS011;7711;46.634;14.318;2022-08-25T08:20:05;7.95;;;6.38;;
15216;SDS011;7711;46.634;14.318;2022-08-25T08:22:34;7.10;;;6.50;;
15216;SDS011;7711;46.634;14.318;2022-08-25T08:25:02;7.35;;;6.65;;
15216;SDS011;7711;46.634;14.318;2022-08-25T08:27:30;8.10;;;6.65;;
15216;SDS011;7711;46.634;14.318;2022-08-25T08:30:00;7.40;;;6.70;;
15216;SDS011;7711;46.634;14.318;2022-08-25T08:32:31;7.93;;;6.25;;
15216;SDS011;7711;46.634;14.318;2022-08-25T08:34:58;7.05;;;6.35;;
15216;SDS011;7711;46.634;14.318;2022-08-25T08:37:31;6.95;;;6.35;;
15216;SDS011;7711;46.634;14.318;2022-08-25T08:39:59;6.93;;;6.32;;
15216;SDS011;7711;46.634;14.318;2022-08-25T08:42:32;7.10;;;6.50;;
15216;SDS011;7711;46.634;14.318;2022-08-25T08:45:30;6.88;;;6.20;;
15216;SDS011;7711;46.634;14.318;2022-08-25T08:48:05;7.35;;;6.65;;
15216;SDS011;7711;46.634;14.318;2022-08-25T08:50:47;7.20;;;6.28;;
15216;SDS011;7711;46.634;14.318;2022-08-25T08:53:30;6.85;;;6.25;;
15216;SDS011;7711;46.634;14.318;2022-08-25T08:56:10;7.43;;;6.72;;
15216;SDS011;7711;46.634;14.318;2022-08-25T08:58:42;7.25;;;6.55;;
15216;SDS011;7711;46.634;14.318;2022-08-25T09:01:12;7.70;;;6.90;;
15216;SDS011;7711;46.634;14.318;2022-08-25T09:03:49;10.15;;;6.38;;
15216;SDS011;7711;46.634;14.318;2022-08-25T09:06:27;7.15;;;6.45;;
15216;SDS011;7711;46.634;14.318;2022-08-25T09:09:01;7.32;;;6.63;;
15216;SDS011;7711;46.634;14.318;2022-08-25T09:11:34;7.82;;;6.57;;
15216;SDS011;7711;46.634;14.318;2022-08-25T09:14:15;9.18;;;6.78;;
15216;SDS011;7711;46.634;14.318;2022-08-25T09:16:54;7.30;;;6.70;;
15216;SDS011;7711;46.634;14.318;2022-08-25T09:19:39;6.65;;;6.03;;
15216;SDS011;7711;46.634;14.318;2022-08-25T09:22:39;7.00;;;6.10;;
15216;SDS011;7711;46.634;14.318;2022-08-25T09:25:19;6.82;;;6.15;;
15216;SDS011;7711;46.634;14.318;2022-08-25T09:27:52;6.90;;;6.28;;
15216;SDS011;7711;46.634;14.318;2022-08-25T09:30:27;6.95;;;6.18;;
15216;SDS011;7711;46.634;14.318;2022-08-25T09:32:58;9.05;;;6.32;;
15216;SDS011;7711;46.634;14.318;2022-08-25T09:35:31;9.23;;;6.05;;
15216;SDS011;7711;46.634;14.318;2022-08-25T09:38:04;7.80;;;6.43;;
15216;SDS011;7711;46.634;14.318;2022-08-25T09:40:35;8.82;;;6.22;;
15216;SDS011;7711;46.634;14.318;2022-08-25T09:43:17;6.65;;;6.05;;
15216;SDS011;7711;46.634;14.318;2022-08-25T09:45:48;6.53;;;5.88;;
15216;SDS011;7711;46.634;14.318;2022-08-25T09:48:22;6.03;;;5.53;;
15216;SDS011;7711;46.634;14.318;2022-08-25T09:50:56;6.97;;;6.30;;
15216;SDS011;7711;46.634;14.318;2022-08-25T09:53:26;5.65;;;5.13;;
15216;SDS011;7711;46.634;14.318;2022-08-25T09:55:59;6.18;;;5.68;;
15216;SDS011;7711;46.634;14.318;2022-08-25T09:58:31;6.30;;;5.70;;
15216;SDS011;7711;46.634;14.318;2022-08-25T10:01:03;8.02;;;6.05;;
15216;SDS011;7711;46.634;14.318;2022-08-25T10:03:37;6.55;;;5.90;;
15216;SDS011;7711;46.634;14.318;2022-08-25T10:06:20;6.63;;;6.03;;
15216;SDS011;7711;46.634;14.318;2022-08-25T10:08:51;7.30;;;6.47;;
15216;SDS011;7711;46.634;14.318;2022-08-25T10:11:32;7.05;;;6.30;;
15216;SDS011;7711;46.634;14.318;2022-08-25T10:14:03;9.05;;;6.28;;
15216;SDS011;7711;46.634;14.318;2022-08-25T10:16:51;6.95;;;6.22;;
15216;SDS011;7711;46.634;14.318;2022-08-25T10:19:36;9.32;;;6.07;;
15216;SDS011;7711;46.634;14.318;2022-08-25T10:22:07;7.38;;;6.03;;
15216;SDS011;7711;46.634;14.318;2022-08-25T10:24:37;7.10;;;6.10;;
15216;SDS011;7711;46.634;14.318;2022-08-25T10:27:09;8.73;;;6.60;;
15216;SDS011;7711;46.634;14.318;2022-08-25T10:29:52;6.53;;;5.88;;
15216;SDS011;7711;46.634;14.318;2022-08-25T10:32:32;8.90;;;5.70;;
15216;SDS011;7711;46.634;14.318;2022-08-25T10:35:11;7.97;;;5.75;;
15216;SDS011;7711;46.634;14.318;2022-08-25T10:37:44;6.88;;;5.60;;
15216;SDS011;7711;46.634;14.318;2022-08-25T10:40:22;9.38;;;5.82;;
15216;SDS011;7711;46.634;14.318;2022-08-25T10:42:57;8.40;;;5.75;;
15216;SDS011;7711;46.634;14.318;2022-08-25T10:45:33;11.05;;;6.60;;
15216;SDS011;7711;46.634;14.318;2022-08-25T10:48:15;8.20;;;6.07;;
15216;SDS011;7711;46.634;14.318;2022-08-25T10:50:51;6.88;;;6.18;;
15216;SDS011;7711;46.634;14.318;2022-08-25T10:53:27;9.02;;;6.20;;
15216;SDS011;7711;46.634;14.318;2022-08-25T10:56:04;6.65;;;5.80;;
15216;SDS011;7711;46.634;14.318;2022-08-25T11:01:31;7.93;;;5.63;;
15216;SDS011;7711;46.634;14.318;2022-08-25T11:04:11;9.93;;;5.18;;
15216;SDS011;7711;46.634;14.318;2022-08-25T11:06:46;7.07;;;5.75;;
15216;SDS011;7711;46.634;14.318;2022-08-25T11:09:23;7.03;;;5.07;;
15216;SDS011;7711;46.634;14.318;2022-08-25T11:11:55;8.18;;;5.90;;
15216;SDS011;7711;46.634;14.318;2022-08-25T11:14:27;8.05;;;5.60;;
15216;SDS011;7711;46.634;14.318;2022-08-25T11:17:00;12.57;;;5.57;;
15216;SDS011;7711;46.634;14.318;2022-08-25T11:19:32;10.30;;;5.57;;
15216;SDS011;7711;46.634;14.318;2022-08-25T11:22:03;7.85;;;5.72;;
15216;SDS011;7711;46.634;14.318;2022-08-25T11:24:44;6.63;;;6.00;;
15216;SDS011;7711;46.634;14.318;2022-08-25T11:27:26;9.52;;;5.75;;
15216;SDS011;7711;46.634;14.318;2022-08-25T11:30:09;8.40;;;5.63;;
15216;SDS011;7711;46.634;14.318;2022-08-25T11:32:39;7.10;;;5.43;;
15216;SDS011;7711;46.634;14.318;2022-08-25T11:35:12;7.10;;;5.82;;
15216;SDS011;7711;46.634;14.318;2022-08-25T11:37:43;7.68;;;5.53;;
15216;SDS011;7711;46.634;14.318;2022-08-25T11:40:37;8.98;;;5.43;;
15216;SDS011;7711;46.634;14.318;2022-08-25T11:43:24;10.65;;;5.90;;
15216;SDS011;7711;46.634;14.318;2022-08-25T11:46:17;7.03;;;5.57;;
15216;SDS011;7711;46.634;14.318;2022-08-25T11:48:56;9.48;;;5.50;;
15216;SDS011;7711;46.634;14.318;2022-08-25T11:51:35;6.43;;;5.32;;
15216;SDS011;7711;46.634;14.318;2022-08-25T11:54:16;8.73;;;5.70;;
15216;SDS011;7711;46.634;14.318;2022-08-25T11:56:53;6.47;;;5.07;;
15216;SDS011;7711;46.634;14.318;2022-08-25T12:02:29;7.60;;;6.07;;
15216;SDS011;7711;46.634;14.318;2022-08-25T12:04:59;8.18;;;5.70;;
15216;SDS011;7711;46.634;14.318;2022-08-25T12:10:53;8.35;;;5.47;;
15216;SDS011;7711;46.634;14.318;2022-08-25T12:13:42;8.50;;;5.80;;
15216;SDS011;7711;46.634;14.318;2022-08-25T12:19:27;6.13;;;5.47;;
15216;SDS011;7711;46.634;14.318;2022-08-25T12:25:07;6.28;;;5.45;;
15216;SDS011;7711;46.634;14.318;2022-08-25T12:27:47;8.85;;;5.60;;
15216;SDS011;7711;46.634;14.318;2022-08-25T12:30:29;9.02;;;5.15;;
15216;SDS011;7711;46.634;14.318;2022-08-25T12:33:09;8.60;;;5.50;;
15216;SDS011;7711;46.634;14.318;2022-08-25T12:35:49;6.20;;;5.10;;
15216;SDS011;7711;46.634;14.318;2022-08-25T12:38:26;8.65;;;5.35;;
15216;SDS011;7711;46.634;14.318;2022-08-25T12:40:57;9.05;;;5.95;;
15216;SDS011;7711;46.634;14.318;2022-08-25T12:43:31;7.57;;;5.53;;
15216;SDS011;7711;46.634;14.318;2022-08-25T12:48:59;6.82;;;5.10;;
15216;SDS011;7711;46.634;14.318;2022-08-25T12:51:39;8.88;;;6.00;;
15216;SDS011;7711;46.634;14.318;2022-08-25T12:54:21;14.82;;;5.72;;
15216;SDS011;7711;46.634;14.318;2022-08-25T12:56:54;8.68;;;5.57;;
15216;SDS011;7711;46.634;14.318;2022-08-25T12:59:31;6.20;;;5.15;;
15216;SDS011;7711;46.634;14.318;2022-08-25T13:02:21;8.40;;;5.70;;
15216;SDS011;7711;46.634;14.318;2022-08-25T13:05:25;10.85;;;5.88;;
15216;SDS011;7711;46.634;14.318;2022-08-25T13:08:19;6.53;;;5.75;;
15216;SDS011;7711;46.634;14.318;2022-08-25T13:11:03;8.00;;;6.32;;
15216;SDS011;7711;46.634;14.318;2022-08-25T13:13:43;7.47;;;5.35;;
15216;SDS011;7711;46.634;14.318;2022-08-25T13:16:19;6.97;;;5.65;;
15216;SDS011;7711;46.634;14.318;2022-08-25T13:18:53;7.05;;;5.43;;
15216;SDS011;7711;46.634;14.318;2022-08-25T13:21:24;8.65;;;5.75;;
15216;SDS011;7711;46.634;14.318;2022-08-25T13:23:56;10.02;;;5.57;;
15216;SDS011;7711;46.634;14.318;2022-08-25T13:26:27;9.82;;;5.57;;
15216;SDS011;7711;46.634;14.318;2022-08-25T13:28:59;8.65;;;5.20;;
15216;SDS011;7711;46.634;14.318;2022-08-25T13:31:48;9.02;;;5.30;;
15216;SDS011;7711;46.634;14.318;2022-08-25T13:34:23;6.90;;;5.13;;
15216;SDS011;7711;46.634;14.318;2022-08-25T13:36:52;9.38;;;5.47;;
15216;SDS011;7711;46.634;14.318;2022-08-25T13:39:39;8.48;;;4.90;;
15216;SDS011;7711;46.634;14.318;2022-08-25T13:42:11;9.80;;;5.45;;
15216;SDS011;7711;46.634;14.318;2022-08-25T13:44:40;8.20;;;4.93;;
15216;SDS011;7711;46.634;14.318;2022-08-25T13:47:08;7.28;;;5.15;;
15216;SDS011;7711;46.634;14.318;2022-08-25T13:49:40;10.93;;;5.43;;
15216;SDS011;7711;46.634;14.318;2022-08-25T13:52:15;9.25;;;5.03;;
15216;SDS011;7711;46.634;14.318;2022-08-25T13:54:50;7.93;;;5.30;;
15216;SDS011;7711;46.634;14.318;2022-08-25T13:57:24;9.57;;;5.22;;
15216;SDS011;7711;46.634;14.318;2022-08-25T13:59:55;6.97;;;4.75;;
15216;SDS011;7711;46.634;14.318;2022-08-25T14:05:31;12.60;;;5.40;;
15216;SDS011;7711;46.634;14.318;2022-08-25T14:08:00;7.45;;;5.03;;
15216;SDS011;7711;46.634;14.318;2022-08-25T14:10:36;10.75;;;5.13;;
15216;SDS011;7711;46.634;14.318;2022-08-25T14:13:12;11.65;;;5.50;;
15216;SDS011;7711;46.634;14.318;2022-08-25T14:15:42;7.15;;;5.30;;
15216;SDS011;7711;46.634;14.318;2022-08-25T14:18:14;7.47;;;5.30;;
15216;SDS011;7711;46.634;14.318;2022-08-25T14:20:48;8.68;;;5.05;;
15216;SDS011;7711;46.634;14.318;2022-08-25T14:23:18;7.97;;;4.80;;
15216;SDS011;7711;46.634;14.318;2022-08-25T14:25:48;7.18;;;4.88;;
15216;SDS011;7711;46.634;14.318;2022-08-25T14:28:16;6.88;;;5.32;;
15216;SDS011;7711;46.634;14.318;2022-08-25T14:30:47;7.15;;;5.57;;
15216;SDS011;7711;46.634;14.318;2022-08-25T14:33:23;6.72;;;5.38;;
15216;SDS011;7711;46.634;14.318;2022-08-25T14:35:56;6.43;;;5.03;;
15216;SDS011;7711;46.634;14.318;2022-08-25T14:38:26;6.20;;;5.15;;
15216;SDS011;7711;46.634;14.318;2022-08-25T14:40:54;6.82;;;4.82;;
15216;SDS011;7711;46.634;14.318;2022-08-25T14:43:21;7.82;;;5.22;;
15216;SDS011;7711;46.634;14.318;2022-08-25T14:45:50;7.78;;;5.63;;
15216;SDS011;7711;46.634;14.318;2022-08-25T14:48:19;8.10;;;5.68;;
15216;SDS011;7711;46.634;14.318;2022-08-25T14:50:52;7.82;;;4.95;;
15216;SDS011;7711;46.634;14.318;2022-08-25T14:53:23;8.10;;;5.07;;
15216;SDS011;7711;46.634;14.318;2022-08-25T14:55:50;11.00;;;5.88;;
15216;SDS011;7711;46.634;14.318;2022-08-25T14:58:18;7.38;;;5.45;;
15216;SDS011;7711;46.634;14.318;2022-08-25T15:00:48;13.10;;;5.95;;
15216;SDS011;7711;46.634;14.318;2022-08-25T15:03:19;7.45;;;6.03;;
15216;SDS011;7711;46.634;14.318;2022-08-25T15:05:54;8.57;;;5.90;;
15216;SDS011;7711;46.634;14.318;2022-08-25T15:08:21;10.10;;;6.20;;
15216;SDS011;7711;46.634;14.318;2022-08-25T15:11:06;7.55;;;6.32;;
15216;SDS011;7711;46.634;14.318;2022-08-25T15:13:35;9.07;;;6.18;;
15216;SDS011;7711;46.634;14.318;2022-08-25T15:16:03;10.55;;;6.10;;
15216;SDS011;7711;46.634;14.318;2022-08-25T15:18:31;10.23;;;6.32;;
15216;SDS011;7711;46.634;14.318;2022-08-25T15:21:00;8.68;;;6.10;;
15216;SDS011;7711;46.634;14.318;2022-08-25T15:23:28;8.57;;;6.43;;
15216;SDS011;7711;46.634;14.318;2022-08-25T15:25:58;7.35;;;5.80;;
15216;SDS011;7711;46.634;14.318;2022-08-25T15:28:25;10.13;;;6.05;;
15216;SDS011;7711;46.634;14.318;2022-08-25T15:30:52;11.38;;;5.78;;
15216;SDS011;7711;46.634;14.318;2022-08-25T15:33:20;9.60;;;6.57;;
15216;SDS011;7711;46.634;14.318;2022-08-25T15:35:48;8.52;;;5.75;;
15216;SDS011;7711;46.634;14.318;2022-08-25T15:38:16;7.97;;;6.00;;
15216;SDS011;7711;46.634;14.318;2022-08-25T15:40:44;8.73;;;6.32;;